sensor_id;sensor_type;location;lat;lon;timestamp;temperature;humidity
76172;DHT22;64929;51.178;4.138;2023-09-07T00:00:47;22.80;81.00
76172;DHT22;64929;51.178;4.138;2023-09-07T00:03:16;22.80;81.10
76172;DHT22;64929;51.178;4.138;2023-09-07T00:05:42;22.80;80.40
76172;DHT22;64929;51.178;4.138;2023-09-07T00:08:08;22.90;80.50
76172;DHT22;64929;51.178;4.138;2023-09-07T00:10:34;22.70;80.50
76172;DHT22;64929;51.178;4.138;2023-09-07T00:13:03;22.70;80.80
76172;DHT22;64929;51.178;4.138;2023-09-07T00:15:30;22.80;80.60
76172;DHT22;64929;51.178;4.138;2023-09-07T00:18:00;22.70;81.20
76172;DHT22;64929;51.178;4.138;2023-09-07T00:20:26;22.70;80.70
76172;DHT22;64929;51.178;4.138;2023-09-07T00:22:52;22.70;81.50
76172;DHT22;64929;51.178;4.138;2023-09-07T00:25:18;22.70;81.50
76172;DHT22;64929;51.178;4.138;2023-09-07T00:27:44;22.70;81.60
76172;DHT22;64929;51.178;4.138;2023-09-07T00:30:10;22.50;83.30
76172;DHT22;64929;51.178;4.138;2023-09-07T00:32:37;22.50;82.20
76172;DHT22;64929;51.178;4.138;2023-09-07T00:35:04;22.60;82.10
76172;DHT22;64929;51.178;4.138;2023-09-07T00:37:30;22.50;82.30
76172;DHT22;64929;51.178;4.138;2023-09-07T00:39:55;22.40;82.50
76172;DHT22;64929;51.178;4.138;2023-09-07T00:42:21;22.50;82.50
76172;DHT22;64929;51.178;4.138;2023-09-07T00:44:47;22.40;82.60
76172;DHT22;64929;51.178;4.138;2023-09-07T00:47:14;22.50;83.00
76172;DHT22;64929;51.178;4.138;2023-09-07T00:49:40;22.40;83.20
76172;DHT22;64929;51.178;4.138;2023-09-07T00:52:08;22.20;83.80
76172;DHT22;64929;51.178;4.138;2023-09-07T00:54:34;22.10;83.70
76172;DHT22;64929;51.178;4.138;2023-09-07T00:57:00;22.20;83.30
76172;DHT22;64929;51.178;4.138;2023-09-07T00:59:27;22.30;83.30
76172;DHT22;64929;51.178;4.138;2023-09-07T01:01:53;22.30;83.00
76172;DHT22;64929;51.178;4.138;2023-09-07T01:04:20;22.30;83.10
76172;DHT22;64929;51.178;4.138;2023-09-07T01:06:52;22.10;83.70
76172;DHT22;64929;51.178;4.138;2023-09-07T01:09:24;22.20;83.10
76172;DHT22;64929;51.178;4.138;2023-09-07T01:11:52;22.20;83.30
76172;DHT22;64929;51.178;4.138;2023-09-07T01:14:18;22.20;83.60
76172;DHT22;64929;51.178;4.138;2023-09-07T01:16:44;22.00;84.30
76172;DHT22;64929;51.178;4.138;2023-09-07T01:19:10;22.00;84.30
76172;DHT22;64929;51.178;4.138;2023-09-07T01:21:38;21.90;84.40
76172;DHT22;64929;51.178;4.138;2023-09-07T01:24:08;22.00;84.30
76172;DHT22;64929;51.178;4.138;2023-09-07T01:26:36;21.90;84.40
76172;DHT22;64929;51.178;4.138;2023-09-07T01:29:06;21.80;85.00
76172;DHT22;64929;51.178;4.138;2023-09-07T01:31:36;21.70;86.00
76172;DHT22;64929;51.178;4.138;2023-09-07T01:34:02;21.70;85.10
76172;DHT22;64929;51.178;4.138;2023-09-07T01:36:28;21.70;85.10
76172;DHT22;64929;51.178;4.138;2023-09-07T01:38:55;21.70;85.40
76172;DHT22;64929;51.178;4.138;2023-09-07T01:41:20;21.70;85.30
76172;DHT22;64929;51.178;4.138;2023-09-07T01:43:47;21.70;85.50
76172;DHT22;64929;51.178;4.138;2023-09-07T01:46:13;21.60;85.70
76172;DHT22;64929;51.178;4.138;2023-09-07T01:48:39;21.60;85.90
76172;DHT22;64929;51.178;4.138;2023-09-07T01:51:04;21.60;85.70
76172;DHT22;64929;51.178;4.138;2023-09-07T01:53:30;21.60;85.90
76172;DHT22;64929;51.178;4.138;2023-09-07T01:55:57;21.70;85.60
76172;DHT22;64929;51.178;4.138;2023-09-07T01:58:24;21.50;86.10
76172;DHT22;64929;51.178;4.138;2023-09-07T02:00:56;21.40;86.30
76172;DHT22;64929;51.178;4.138;2023-09-07T02:03:22;21.30;86.90
76172;DHT22;64929;51.178;4.138;2023-09-07T02:05:49;21.10;87.30
76172;DHT22;64929;51.178;4.138;2023-09-07T02:08:15;21.20;87.40
76172;DHT22;64929;51.178;4.138;2023-09-07T02:10:40;21.30;86.90
76172;DHT22;64929;51.178;4.138;2023-09-07T02:13:07;21.40;86.60
76172;DHT22;64929;51.178;4.138;2023-09-07T02:15:33;21.30;87.00
76172;DHT22;64929;51.178;4.138;2023-09-07T02:17:59;21.20;87.40
76172;DHT22;64929;51.178;4.138;2023-09-07T02:20:25;21.20;87.30
76172;DHT22;64929;51.178;4.138;2023-09-07T02:22:51;21.10;87.50
76172;DHT22;64929;51.178;4.138;2023-09-07T02:25:17;21.10;87.50
76172;DHT22;64929;51.178;4.138;2023-09-07T02:27:43;21.00;87.80
76172;DHT22;64929;51.178;4.138;2023-09-07T02:30:09;21.10;87.90
76172;DHT22;64929;51.178;4.138;2023-09-07T02:32:36;21.20;87.10
76172;DHT22;64929;51.178;4.138;2023-09-07T02:35:02;21.30;86.80
76172;DHT22;64929;51.178;4.138;2023-09-07T02:37:28;21.30;86.50
76172;DHT22;64929;51.178;4.138;2023-09-07T02:39:54;21.10;87.00
76172;DHT22;64929;51.178;4.138;2023-09-07T02:42:20;21.10;87.40
76172;DHT22;64929;51.178;4.138;2023-09-07T02:44:45;21.20;86.80
76172;DHT22;64929;51.178;4.138;2023-09-07T02:47:12;21.20;86.60
76172;DHT22;64929;51.178;4.138;2023-09-07T02:49:39;20.90;87.50
76172;DHT22;64929;51.178;4.138;2023-09-07T02:52:05;20.80;88.50
76172;DHT22;64929;51.178;4.138;2023-09-07T02:54:31;20.90;87.50
76172;DHT22;64929;51.178;4.138;2023-09-07T02:56:58;20.90;87.60
76172;DHT22;64929;51.178;4.138;2023-09-07T02:59:23;20.70;88.70
76172;DHT22;64929;51.178;4.138;2023-09-07T03:01:49;20.80;88.50
76172;DHT22;64929;51.178;4.138;2023-09-07T03:04:15;20.70;88.30
76172;DHT22;64929;51.178;4.138;2023-09-07T03:06:40;20.70;88.50
76172;DHT22;64929;51.178;4.138;2023-09-07T03:09:07;20.50;88.80
76172;DHT22;64929;51.178;4.138;2023-09-07T03:11:34;20.50;89.10
76172;DHT22;64929;51.178;4.138;2023-09-07T03:14:01;20.40;89.50
76172;DHT22;64929;51.178;4.138;2023-09-07T03:16:26;20.40;89.70
76172;DHT22;64929;51.178;4.138;2023-09-07T03:18:52;20.50;89.20
76172;DHT22;64929;51.178;4.138;2023-09-07T03:21:19;20.60;88.60
76172;DHT22;64929;51.178;4.138;2023-09-07T03:23:45;20.60;88.70
76172;DHT22;64929;51.178;4.138;2023-09-07T03:26:11;20.60;88.70
76172;DHT22;64929;51.178;4.138;2023-09-07T03:28:37;20.60;88.60
76172;DHT22;64929;51.178;4.138;2023-09-07T03:31:02;20.50;88.70
76172;DHT22;64929;51.178;4.138;2023-09-07T03:33:28;20.50;88.90
76172;DHT22;64929;51.178;4.138;2023-09-07T03:35:54;20.40;89.30
76172;DHT22;64929;51.178;4.138;2023-09-07T03:38:24;20.40;89.40
76172;DHT22;64929;51.178;4.138;2023-09-07T03:40:50;20.30;90.20
76172;DHT22;64929;51.178;4.138;2023-09-07T03:43:16;20.40;89.90
76172;DHT22;64929;51.178;4.138;2023-09-07T03:45:42;20.40;89.50
76172;DHT22;64929;51.178;4.138;2023-09-07T03:48:07;20.40;89.40
76172;DHT22;64929;51.178;4.138;2023-09-07T03:50:34;20.50;88.80
76172;DHT22;64929;51.178;4.138;2023-09-07T03:53:01;20.50;88.70
76172;DHT22;64929;51.178;4.138;2023-09-07T03:55:26;20.50;88.90
76172;DHT22;64929;51.178;4.138;2023-09-07T03:57:52;20.50;89.00
76172;DHT22;64929;51.178;4.138;2023-09-07T04:00:19;20.40;89.20
76172;DHT22;64929;51.178;4.138;2023-09-07T04:02:45;20.40;88.90
76172;DHT22;64929;51.178;4.138;2023-09-07T04:05:11;20.30;89.10
76172;DHT22;64929;51.178;4.138;2023-09-07T04:07:38;20.30;89.40
76172;DHT22;64929;51.178;4.138;2023-09-07T04:10:05;20.30;89.50
76172;DHT22;64929;51.178;4.138;2023-09-07T04:12:40;20.30;89.60
76172;DHT22;64929;51.178;4.138;2023-09-07T04:15:09;20.00;90.10
76172;DHT22;64929;51.178;4.138;2023-09-07T04:17:35;20.20;89.70
76172;DHT22;64929;51.178;4.138;2023-09-07T04:20:08;20.20;90.00
76172;DHT22;64929;51.178;4.138;2023-09-07T04:22:34;20.20;89.40
76172;DHT22;64929;51.178;4.138;2023-09-07T04:25:01;20.20;89.20
76172;DHT22;64929;51.178;4.138;2023-09-07T04:27:26;20.30;88.80
76172;DHT22;64929;51.178;4.138;2023-09-07T04:29:53;20.40;88.60
76172;DHT22;64929;51.178;4.138;2023-09-07T04:32:19;20.40;88.80
76172;DHT22;64929;51.178;4.138;2023-09-07T04:34:45;20.40;88.80
76172;DHT22;64929;51.178;4.138;2023-09-07T04:37:11;20.50;88.90
76172;DHT22;64929;51.178;4.138;2023-09-07T04:39:37;20.60;88.60
76172;DHT22;64929;51.178;4.138;2023-09-07T04:42:04;20.60;88.20
76172;DHT22;64929;51.178;4.138;2023-09-07T04:44:29;20.60;88.10
76172;DHT22;64929;51.178;4.138;2023-09-07T04:46:55;20.40;88.00
76172;DHT22;64929;51.178;4.138;2023-09-07T04:49:22;19.90;89.40
76172;DHT22;64929;51.178;4.138;2023-09-07T04:51:49;19.60;90.40
76172;DHT22;64929;51.178;4.138;2023-09-07T04:54:14;19.40;90.60
76172;DHT22;64929;51.178;4.138;2023-09-07T04:56:41;19.20;91.20
76172;DHT22;64929;51.178;4.138;2023-09-07T04:59:07;19.40;91.00
76172;DHT22;64929;51.178;4.138;2023-09-07T05:01:34;19.30;91.00
76172;DHT22;64929;51.178;4.138;2023-09-07T05:03:59;19.20;91.10
76172;DHT22;64929;51.178;4.138;2023-09-07T05:06:27;19.20;91.20
76172;DHT22;64929;51.178;4.138;2023-09-07T05:08:53;19.10;91.20
76172;DHT22;64929;51.178;4.138;2023-09-07T05:11:18;19.20;91.20
76172;DHT22;64929;51.178;4.138;2023-09-07T05:13:44;19.10;91.20
76172;DHT22;64929;51.178;4.138;2023-09-07T05:16:10;19.00;91.50
76172;DHT22;64929;51.178;4.138;2023-09-07T05:18:36;19.10;91.50
76172;DHT22;64929;51.178;4.138;2023-09-07T05:21:13;19.40;90.90
76172;DHT22;64929;51.178;4.138;2023-09-07T05:23:39;19.50;90.60
76172;DHT22;64929;51.178;4.138;2023-09-07T05:26:05;19.70;90.40
76172;DHT22;64929;51.178;4.138;2023-09-07T05:28:40;19.80;90.30
76172;DHT22;64929;51.178;4.138;2023-09-07T05:31:06;19.80;90.20
76172;DHT22;64929;51.178;4.138;2023-09-07T05:33:33;19.80;90.20
76172;DHT22;64929;51.178;4.138;2023-09-07T05:35:59;19.80;90.20
76172;DHT22;64929;51.178;4.138;2023-09-07T05:38:26;19.40;90.90
76172;DHT22;64929;51.178;4.138;2023-09-07T05:40:53;19.30;91.10
76172;DHT22;64929;51.178;4.138;2023-09-07T05:43:20;19.20;91.50
76172;DHT22;64929;51.178;4.138;2023-09-07T05:45:46;19.20;92.00
76172;DHT22;64929;51.178;4.138;2023-09-07T05:48:13;19.30;92.10
76172;DHT22;64929;51.178;4.138;2023-09-07T05:50:40;19.30;92.10
76172;DHT22;64929;51.178;4.138;2023-09-07T05:53:06;19.30;92.30
76172;DHT22;64929;51.178;4.138;2023-09-07T05:55:32;19.40;92.40
76172;DHT22;64929;51.178;4.138;2023-09-07T05:57:58;19.30;92.30
76172;DHT22;64929;51.178;4.138;2023-09-07T06:00:24;19.50;92.00
76172;DHT22;64929;51.178;4.138;2023-09-07T06:02:50;19.60;91.60
76172;DHT22;64929;51.178;4.138;2023-09-07T06:05:16;19.60;91.70
76172;DHT22;64929;51.178;4.138;2023-09-07T06:07:43;19.70;91.50
76172;DHT22;64929;51.178;4.138;2023-09-07T06:10:10;19.80;91.60
76172;DHT22;64929;51.178;4.138;2023-09-07T06:12:35;19.90;91.60
76172;DHT22;64929;51.178;4.138;2023-09-07T06:15:02;20.00;91.10
76172;DHT22;64929;51.178;4.138;2023-09-07T06:17:29;20.00;91.30
76172;DHT22;64929;51.178;4.138;2023-09-07T06:19:55;20.00;91.20
76172;DHT22;64929;51.178;4.138;2023-09-07T06:22:21;20.10;90.90
76172;DHT22;64929;51.178;4.138;2023-09-07T06:24:47;20.20;90.60
76172;DHT22;64929;51.178;4.138;2023-09-07T06:27:14;20.40;90.50
76172;DHT22;64929;51.178;4.138;2023-09-07T06:29:39;20.50;90.20
76172;DHT22;64929;51.178;4.138;2023-09-07T06:32:05;20.60;90.50
76172;DHT22;64929;51.178;4.138;2023-09-07T06:34:30;20.60;90.20
76172;DHT22;64929;51.178;4.138;2023-09-07T06:36:57;20.70;90.10
76172;DHT22;64929;51.178;4.138;2023-09-07T06:39:23;20.80;88.90
76172;DHT22;64929;51.178;4.138;2023-09-07T06:41:49;20.70;89.40
76172;DHT22;64929;51.178;4.138;2023-09-07T06:44:15;20.70;89.30
76172;DHT22;64929;51.178;4.138;2023-09-07T06:46:40;20.60;89.90
76172;DHT22;64929;51.178;4.138;2023-09-07T06:49:06;20.40;90.10
76172;DHT22;64929;51.178;4.138;2023-09-07T06:51:33;20.50;89.60
76172;DHT22;64929;51.178;4.138;2023-09-07T06:53:59;20.60;90.20
76172;DHT22;64929;51.178;4.138;2023-09-07T06:56:25;20.80;89.10
76172;DHT22;64929;51.178;4.138;2023-09-07T06:58:52;20.90;88.50
76172;DHT22;64929;51.178;4.138;2023-09-07T07:01:18;21.00;88.00
76172;DHT22;64929;51.178;4.138;2023-09-07T07:03:44;20.90;88.70
76172;DHT22;64929;51.178;4.138;2023-09-07T07:06:10;20.90;88.70
76172;DHT22;64929;51.178;4.138;2023-09-07T07:08:36;21.10;88.90
76172;DHT22;64929;51.178;4.138;2023-09-07T07:11:02;21.20;88.90
76172;DHT22;64929;51.178;4.138;2023-09-07T07:13:27;21.30;88.10
76172;DHT22;64929;51.178;4.138;2023-09-07T07:15:54;21.40;87.60
76172;DHT22;64929;51.178;4.138;2023-09-07T07:18:20;21.40;87.90
76172;DHT22;64929;51.178;4.138;2023-09-07T07:20:45;21.50;88.10
76172;DHT22;64929;51.178;4.138;2023-09-07T07:23:12;21.40;87.60
76172;DHT22;64929;51.178;4.138;2023-09-07T07:25:57;21.50;87.60
76172;DHT22;64929;51.178;4.138;2023-09-07T07:28:24;21.60;87.00
76172;DHT22;64929;51.178;4.138;2023-09-07T07:30:50;21.80;87.00
76172;DHT22;64929;51.178;4.138;2023-09-07T07:33:17;21.90;86.20
76172;DHT22;64929;51.178;4.138;2023-09-07T07:35:44;21.90;86.30
76172;DHT22;64929;51.178;4.138;2023-09-07T07:38:10;21.90;86.50
76172;DHT22;64929;51.178;4.138;2023-09-07T07:40:39;22.00;86.30
76172;DHT22;64929;51.178;4.138;2023-09-07T07:43:04;21.90;86.30
76172;DHT22;64929;51.178;4.138;2023-09-07T07:45:31;22.10;86.20
76172;DHT22;64929;51.178;4.138;2023-09-07T07:48:02;22.20;85.00
76172;DHT22;64929;51.178;4.138;2023-09-07T07:50:27;22.30;85.30
76172;DHT22;64929;51.178;4.138;2023-09-07T07:52:53;22.40;84.90
76172;DHT22;64929;51.178;4.138;2023-09-07T07:55:19;22.50;85.10
76172;DHT22;64929;51.178;4.138;2023-09-07T07:57:45;22.60;84.50
76172;DHT22;64929;51.178;4.138;2023-09-07T08:00:13;22.50;85.10
76172;DHT22;64929;51.178;4.138;2023-09-07T08:02:39;22.70;85.50
76172;DHT22;64929;51.178;4.138;2023-09-07T08:05:05;22.70;83.70
76172;DHT22;64929;51.178;4.138;2023-09-07T08:07:31;22.90;82.30
76172;DHT22;64929;51.178;4.138;2023-09-07T08:09:57;23.00;82.00
76172;DHT22;64929;51.178;4.138;2023-09-07T08:12:23;23.20;82.10
76172;DHT22;64929;51.178;4.138;2023-09-07T08:14:49;23.20;82.10
76172;DHT22;64929;51.178;4.138;2023-09-07T08:17:15;23.30;81.90
76172;DHT22;64929;51.178;4.138;2023-09-07T08:19:41;23.30;80.90
76172;DHT22;64929;51.178;4.138;2023-09-07T08:22:06;23.20;80.90
76172;DHT22;64929;51.178;4.138;2023-09-07T08:24:34;23.20;80.60
76172;DHT22;64929;51.178;4.138;2023-09-07T08:26:59;23.30;80.90
76172;DHT22;64929;51.178;4.138;2023-09-07T08:29:26;23.40;80.30
76172;DHT22;64929;51.178;4.138;2023-09-07T08:31:53;23.50;79.90
76172;DHT22;64929;51.178;4.138;2023-09-07T08:34:18;23.60;80.60
76172;DHT22;64929;51.178;4.138;2023-09-07T08:36:51;23.60;80.70
76172;DHT22;64929;51.178;4.138;2023-09-07T08:39:20;23.60;80.50
76172;DHT22;64929;51.178;4.138;2023-09-07T08:41:45;23.70;79.80
76172;DHT22;64929;51.178;4.138;2023-09-07T08:44:21;23.80;80.10
76172;DHT22;64929;51.178;4.138;2023-09-07T08:46:50;23.90;79.50
76172;DHT22;64929;51.178;4.138;2023-09-07T08:49:17;23.90;78.90
76172;DHT22;64929;51.178;4.138;2023-09-07T08:51:46;23.90;79.10
76172;DHT22;64929;51.178;4.138;2023-09-07T08:54:13;24.00;79.20
76172;DHT22;64929;51.178;4.138;2023-09-07T08:56:38;23.90;78.40
76172;DHT22;64929;51.178;4.138;2023-09-07T08:59:05;23.90;78.60
76172;DHT22;64929;51.178;4.138;2023-09-07T09:01:38;24.10;78.00
76172;DHT22;64929;51.178;4.138;2023-09-07T09:04:05;24.00;77.90
76172;DHT22;64929;51.178;4.138;2023-09-07T09:06:31;24.10;77.90
76172;DHT22;64929;51.178;4.138;2023-09-07T09:08:57;24.10;76.80
76172;DHT22;64929;51.178;4.138;2023-09-07T09:11:24;24.20;77.00
76172;DHT22;64929;51.178;4.138;2023-09-07T09:13:53;24.40;76.10
76172;DHT22;64929;51.178;4.138;2023-09-07T09:16:20;24.50;76.00
76172;DHT22;64929;51.178;4.138;2023-09-07T09:18:50;24.50;77.70
76172;DHT22;64929;51.178;4.138;2023-09-07T09:21:21;24.70;77.30
76172;DHT22;64929;51.178;4.138;2023-09-07T09:23:49;24.80;76.40
76172;DHT22;64929;51.178;4.138;2023-09-07T09:26:37;24.80;76.00
76172;DHT22;64929;51.178;4.138;2023-09-07T09:29:02;25.00;75.00
76172;DHT22;64929;51.178;4.138;2023-09-07T09:31:29;24.80;74.70
76172;DHT22;64929;51.178;4.138;2023-09-07T09:33:56;24.80;75.70
76172;DHT22;64929;51.178;4.138;2023-09-07T09:36:22;24.90;75.10
76172;DHT22;64929;51.178;4.138;2023-09-07T09:38:51;25.00;76.00
76172;DHT22;64929;51.178;4.138;2023-09-07T09:41:19;25.10;73.40
76172;DHT22;64929;51.178;4.138;2023-09-07T09:43:46;25.20;74.90
76172;DHT22;64929;51.178;4.138;2023-09-07T09:46:17;25.20;75.40
76172;DHT22;64929;51.178;4.138;2023-09-07T09:48:43;25.20;74.40
76172;DHT22;64929;51.178;4.138;2023-09-07T09:51:10;25.30;74.20
76172;DHT22;64929;51.178;4.138;2023-09-07T09:53:36;25.40;73.90
76172;DHT22;64929;51.178;4.138;2023-09-07T09:56:02;25.40;73.70
76172;DHT22;64929;51.178;4.138;2023-09-07T09:58:28;25.40;73.60
76172;DHT22;64929;51.178;4.138;2023-09-07T10:00:56;25.50;73.90
76172;DHT22;64929;51.178;4.138;2023-09-07T10:03:29;25.70;73.10
76172;DHT22;64929;51.178;4.138;2023-09-07T10:06:20;25.60;73.80
76172;DHT22;64929;51.178;4.138;2023-09-07T10:09:16;25.70;72.80
76172;DHT22;64929;51.178;4.138;2023-09-07T10:11:51;25.80;72.00
76172;DHT22;64929;51.178;4.138;2023-09-07T10:14:16;25.80;73.40
76172;DHT22;64929;51.178;4.138;2023-09-07T10:19:19;25.90;73.10
76172;DHT22;64929;51.178;4.138;2023-09-07T10:21:45;25.70;73.40
76172;DHT22;64929;51.178;4.138;2023-09-07T10:24:11;25.70;73.30
76172;DHT22;64929;51.178;4.138;2023-09-07T10:26:37;25.70;73.40
76172;DHT22;64929;51.178;4.138;2023-09-07T10:29:03;25.90;72.60
76172;DHT22;64929;51.178;4.138;2023-09-07T10:31:31;26.00;70.80
76172;DHT22;64929;51.178;4.138;2023-09-07T10:34:08;26.00;72.10
76172;DHT22;64929;51.178;4.138;2023-09-07T10:36:36;26.00;73.10
76172;DHT22;64929;51.178;4.138;2023-09-07T10:39:02;26.10;73.30
76172;DHT22;64929;51.178;4.138;2023-09-07T10:41:40;26.00;72.90
76172;DHT22;64929;51.178;4.138;2023-09-07T10:44:06;26.20;72.10
76172;DHT22;64929;51.178;4.138;2023-09-07T10:46:32;26.30;69.00
76172;DHT22;64929;51.178;4.138;2023-09-07T10:48:58;26.20;71.10
76172;DHT22;64929;51.178;4.138;2023-09-07T10:51:24;26.10;70.40
76172;DHT22;64929;51.178;4.138;2023-09-07T10:53:50;26.10;71.90
76172;DHT22;64929;51.178;4.138;2023-09-07T10:56:15;26.30;69.90
76172;DHT22;64929;51.178;4.138;2023-09-07T10:58:42;26.50;69.80
76172;DHT22;64929;51.178;4.138;2023-09-07T11:01:09;26.60;68.90
76172;DHT22;64929;51.178;4.138;2023-09-07T11:03:37;26.70;69.00
76172;DHT22;64929;51.178;4.138;2023-09-07T11:06:09;26.70;70.20
76172;DHT22;64929;51.178;4.138;2023-09-07T11:08:36;26.70;68.60
76172;DHT22;64929;51.178;4.138;2023-09-07T11:11:02;26.70;67.90
76172;DHT22;64929;51.178;4.138;2023-09-07T11:13:29;26.80;67.10
76172;DHT22;64929;51.178;4.138;2023-09-07T11:15:57;26.60;68.60
76172;DHT22;64929;51.178;4.138;2023-09-07T11:18:24;26.60;69.40
76172;DHT22;64929;51.178;4.138;2023-09-07T11:20:51;26.90;68.10
76172;DHT22;64929;51.178;4.138;2023-09-07T11:23:18;27.00;68.90
76172;DHT22;64929;51.178;4.138;2023-09-07T11:25:44;27.00;68.20
76172;DHT22;64929;51.178;4.138;2023-09-07T11:28:11;27.00;67.00
76172;DHT22;64929;51.178;4.138;2023-09-07T11:30:49;27.10;68.20
76172;DHT22;64929;51.178;4.138;2023-09-07T11:33:16;27.20;67.90
76172;DHT22;64929;51.178;4.138;2023-09-07T11:35:42;27.30;67.90
76172;DHT22;64929;51.178;4.138;2023-09-07T11:38:08;27.20;67.70
76172;DHT22;64929;51.178;4.138;2023-09-07T11:40:38;27.40;67.10
76172;DHT22;64929;51.178;4.138;2023-09-07T11:43:04;27.60;66.10
76172;DHT22;64929;51.178;4.138;2023-09-07T11:45:29;27.60;67.10
76172;DHT22;64929;51.178;4.138;2023-09-07T11:47:55;27.50;67.60
76172;DHT22;64929;51.178;4.138;2023-09-07T11:50:23;27.60;65.70
76172;DHT22;64929;51.178;4.138;2023-09-07T11:52:50;27.60;67.80
76172;DHT22;64929;51.178;4.138;2023-09-07T11:55:19;27.60;65.70
76172;DHT22;64929;51.178;4.138;2023-09-07T11:57:52;27.60;66.70
76172;DHT22;64929;51.178;4.138;2023-09-07T12:00:18;27.60;67.30
76172;DHT22;64929;51.178;4.138;2023-09-07T12:02:43;27.70;64.80
76172;DHT22;64929;51.178;4.138;2023-09-07T12:05:09;27.80;66.50
76172;DHT22;64929;51.178;4.138;2023-09-07T12:07:36;27.90;66.10
76172;DHT22;64929;51.178;4.138;2023-09-07T12:10:02;27.90;65.30
76172;DHT22;64929;51.178;4.138;2023-09-07T12:12:28;27.90;65.10
76172;DHT22;64929;51.178;4.138;2023-09-07T12:14:54;28.10;65.60
76172;DHT22;64929;51.178;4.138;2023-09-07T12:17:22;28.00;63.90
76172;DHT22;64929;51.178;4.138;2023-09-07T12:19:50;27.90;63.60
76172;DHT22;64929;51.178;4.138;2023-09-07T12:22:16;27.80;64.30
76172;DHT22;64929;51.178;4.138;2023-09-07T12:24:41;27.80;63.10
76172;DHT22;64929;51.178;4.138;2023-09-07T12:27:07;27.90;63.10
76172;DHT22;64929;51.178;4.138;2023-09-07T12:29:33;27.90;64.10
76172;DHT22;64929;51.178;4.138;2023-09-07T12:31:59;27.80;64.40
76172;DHT22;64929;51.178;4.138;2023-09-07T12:34:26;27.90;63.70
76172;DHT22;64929;51.178;4.138;2023-09-07T12:36:52;27.90;65.10
76172;DHT22;64929;51.178;4.138;2023-09-07T12:39:18;28.00;64.90
76172;DHT22;64929;51.178;4.138;2023-09-07T12:41:43;28.00;66.50
76172;DHT22;64929;51.178;4.138;2023-09-07T12:44:09;28.20;64.90
76172;DHT22;64929;51.178;4.138;2023-09-07T12:46:36;28.20;63.40
76172;DHT22;64929;51.178;4.138;2023-09-07T12:49:03;28.20;67.80
76172;DHT22;64929;51.178;4.138;2023-09-07T12:51:29;28.30;65.20
76172;DHT22;64929;51.178;4.138;2023-09-07T12:53:55;28.40;63.80
76172;DHT22;64929;51.178;4.138;2023-09-07T12:56:21;28.40;63.00
76172;DHT22;64929;51.178;4.138;2023-09-07T12:58:47;28.40;62.70
76172;DHT22;64929;51.178;4.138;2023-09-07T13:01:13;28.50;63.90
76172;DHT22;64929;51.178;4.138;2023-09-07T13:03:41;28.50;64.10
76172;DHT22;64929;51.178;4.138;2023-09-07T13:06:07;28.50;62.80
76172;DHT22;64929;51.178;4.138;2023-09-07T13:08:34;28.40;62.90
76172;DHT22;64929;51.178;4.138;2023-09-07T13:10:59;28.40;63.90
76172;DHT22;64929;51.178;4.138;2023-09-07T13:13:25;28.50;64.00
76172;DHT22;64929;51.178;4.138;2023-09-07T13:15:56;28.50;63.20
76172;DHT22;64929;51.178;4.138;2023-09-07T13:18:23;28.70;61.60
76172;DHT22;64929;51.178;4.138;2023-09-07T13:20:48;28.70;61.50
76172;DHT22;64929;51.178;4.138;2023-09-07T13:23:20;28.70;61.50
76172;DHT22;64929;51.178;4.138;2023-09-07T13:25:46;28.70;62.40
76172;DHT22;64929;51.178;4.138;2023-09-07T13:28:11;28.70;62.90
76172;DHT22;64929;51.178;4.138;2023-09-07T13:30:37;28.80;59.60
76172;DHT22;64929;51.178;4.138;2023-09-07T13:33:04;28.80;60.10
76172;DHT22;64929;51.178;4.138;2023-09-07T13:35:29;28.70;62.60
76172;DHT22;64929;51.178;4.138;2023-09-07T13:37:55;28.60;60.10
76172;DHT22;64929;51.178;4.138;2023-09-07T13:40:22;28.70;60.20
76172;DHT22;64929;51.178;4.138;2023-09-07T13:42:49;28.80;62.60
76172;DHT22;64929;51.178;4.138;2023-09-07T13:45:15;28.90;61.10
76172;DHT22;64929;51.178;4.138;2023-09-07T13:47:41;29.10;61.30
76172;DHT22;64929;51.178;4.138;2023-09-07T13:50:07;29.10;60.70
76172;DHT22;64929;51.178;4.138;2023-09-07T13:52:32;29.00;60.70
76172;DHT22;64929;51.178;4.138;2023-09-07T13:54:58;29.10;60.00
76172;DHT22;64929;51.178;4.138;2023-09-07T13:57:24;29.20;61.30
76172;DHT22;64929;51.178;4.138;2023-09-07T13:59:49;29.20;62.10
76172;DHT22;64929;51.178;4.138;2023-09-07T14:02:15;29.20;59.90
76172;DHT22;64929;51.178;4.138;2023-09-07T14:04:41;29.20;60.70
76172;DHT22;64929;51.178;4.138;2023-09-07T14:07:06;29.30;59.30
76172;DHT22;64929;51.178;4.138;2023-09-07T14:09:37;29.20;58.90
76172;DHT22;64929;51.178;4.138;2023-09-07T14:12:03;29.30;61.20
76172;DHT22;64929;51.178;4.138;2023-09-07T14:14:30;29.40;60.40
76172;DHT22;64929;51.178;4.138;2023-09-07T14:16:55;29.40;59.40
76172;DHT22;64929;51.178;4.138;2023-09-07T14:19:23;29.30;59.40
76172;DHT22;64929;51.178;4.138;2023-09-07T14:21:49;29.40;59.10
76172;DHT22;64929;51.178;4.138;2023-09-07T14:24:14;29.70;58.30
76172;DHT22;64929;51.178;4.138;2023-09-07T14:26:40;30.20;58.20
76172;DHT22;64929;51.178;4.138;2023-09-07T14:29:06;31.00;56.10
76172;DHT22;64929;51.178;4.138;2023-09-07T14:31:35;32.10;54.90
76172;DHT22;64929;51.178;4.138;2023-09-07T14:34:00;33.20;52.80
76172;DHT22;64929;51.178;4.138;2023-09-07T14:36:26;33.60;52.70
76172;DHT22;64929;51.178;4.138;2023-09-07T14:38:52;34.80;50.60
76172;DHT22;64929;51.178;4.138;2023-09-07T14:41:17;35.70;48.40
76172;DHT22;64929;51.178;4.138;2023-09-07T14:43:47;36.10;48.00
76172;DHT22;64929;51.178;4.138;2023-09-07T14:46:14;36.80;47.00
76172;DHT22;64929;51.178;4.138;2023-09-07T14:48:40;37.80;45.80
76172;DHT22;64929;51.178;4.138;2023-09-07T14:51:06;37.60;45.20
76172;DHT22;64929;51.178;4.138;2023-09-07T14:53:31;38.50;44.90
76172;DHT22;64929;51.178;4.138;2023-09-07T14:55:57;39.80;42.50
76172;DHT22;64929;51.178;4.138;2023-09-07T14:58:23;40.80;42.60
76172;DHT22;64929;51.178;4.138;2023-09-07T15:00:48;40.70;40.10
76172;DHT22;64929;51.178;4.138;2023-09-07T15:03:14;39.90;40.40
76172;DHT22;64929;51.178;4.138;2023-09-07T15:05:40;39.70;41.30
76172;DHT22;64929;51.178;4.138;2023-09-07T15:08:06;41.10;41.30
76172;DHT22;64929;51.178;4.138;2023-09-07T15:10:33;40.90;39.20
76172;DHT22;64929;51.178;4.138;2023-09-07T15:13:00;41.00;39.60
76172;DHT22;64929;51.178;4.138;2023-09-07T15:15:29;40.60;38.80
76172;DHT22;64929;51.178;4.138;2023-09-07T15:18:00;39.60;39.90
76172;DHT22;64929;51.178;4.138;2023-09-07T15:20:26;40.40;40.50
76172;DHT22;64929;51.178;4.138;2023-09-07T15:22:52;41.00;39.20
76172;DHT22;64929;51.178;4.138;2023-09-07T15:25:18;40.30;39.00
76172;DHT22;64929;51.178;4.138;2023-09-07T15:27:44;39.60;39.50
76172;DHT22;64929;51.178;4.138;2023-09-07T15:30:13;39.80;40.80